Time;durP1;ratioP1;P1;durP2;ratioP2;P2;SDS_P1;SDS_P2;PMS_P1;PMS_P2;Temp;Humidity;BMP_temperature;BMP_pressure;BME280_temperature;BME280_humidity;BME280_pressure;Samples;Min_cycle;Max_cycle;Signal;HPM_P1;HPM_P2
2021/08/04 00:00:38;;;;;;;5.90;3.75;;;;;;;17.86;70.66;97015.94;4951841;28;20038;-77
2021/08/04 00:03:03;;;;;;;5.75;3.75;;;;;;;17.95;70.58;97019.47;4919725;28;20494;-77
2021/08/04 00:05:29;;;;;;;5.22;4.07;;;;;;;17.92;70.76;97014.78;4925058;28;20233;-77
2021/08/04 00:07:54;;;;;;;6.10;4.45;;;;;;;17.89;70.68;97010.91;4953836;28;20071;-77
2021/08/04 00:10:20;;;;;;;4.38;3.97;;;;;;;17.90;70.49;97011.66;4953141;28;20027;-77
2021/08/04 00:12:46;;;;;;;6.35;4.20;;;;;;;17.94;70.61;97017.91;4951247;28;20027;-77
2021/08/04 00:15:13;;;;;;;7.35;4.20;;;;;;;17.90;70.78;97015.06;4954044;28;20050;-77
2021/08/04 00:17:40;;;;;;;5.22;4.43;;;;;;;17.92;70.35;97010.31;4969390;28;20035;-77
2021/08/04 00:20:13;;;;;;;6.18;4.32;;;;;;;17.90;70.71;97016.94;4953670;28;20081;-77
2021/08/04 00:22:38;;;;;;;4.78;4.28;;;;;;;17.82;70.78;97004.44;4953413;28;20082;-77
2021/08/04 00:25:06;;;;;;;8.07;5.30;;;;;;;17.76;70.75;97017.69;4951001;28;20039;-77
2021/08/04 00:27:32;;;;;;;4.80;4.35;;;;;;;17.84;70.82;97010.97;4968951;28;20026;-77
2021/08/04 00:29:58;;;;;;;5.57;4.45;;;;;;;17.82;70.67;97009.69;4969069;28;20042;-77
2021/08/04 00:32:24;;;;;;;5.10;4.68;;;;;;;17.88;70.44;97009.31;4936008;28;20061;-77
2021/08/04 00:34:52;;;;;;;6.32;5.38;;;;;;;17.76;70.56;97011.66;4937442;28;20109;-77
2021/08/04 00:37:17;;;;;;;6.20;4.90;;;;;;;17.76;70.55;97012.44;4949890;29;20035;-77
2021/08/04 00:39:43;;;;;;;5.70;4.70;;;;;;;17.77;70.73;97008.75;4936830;28;20525;-77
2021/08/04 00:42:09;;;;;;;7.65;5.18;;;;;;;17.78;70.64;97007.66;4937397;28;20022;-77
2021/08/04 00:44:34;;;;;;;5.30;4.78;;;;;;;17.79;70.81;97011.84;4949247;28;20039;-77
2021/08/04 00:47:01;;;;;;;5.88;4.55;;;;;;;17.83;70.68;97016.53;4970266;28;20037;-77
2021/08/04 00:49:26;;;;;;;6.55;4.97;;;;;;;17.79;70.79;97011.09;4952242;28;20039;-77
2021/08/04 00:51:52;;;;;;;5.65;5.05;;;;;;;17.74;70.68;97009.31;4968891;28;20052;-77
2021/08/04 00:54:17;;;;;;;5.28;4.78;;;;;;;17.75;70.62;97010.91;4937244;28;20023;-77
2021/08/04 00:56:42;;;;;;;7.07;4.65;;;;;;;17.61;71.28;97012.75;4953033;28;20030;-77
2021/08/04 00:59:11;;;;;;;7.70;5.55;;;;;;;17.62;70.60;97008.28;4948737;28;20034;-77
2021/08/04 01:04:09;;;;;;;6.18;5.13;;;;;;;17.54;71.00;97007.09;4981809;23;20051;-79
2021/08/04 01:07:09;;;;;;;7.10;5.82;;;;;;;17.45;71.30;97004.38;4949891;28;20059;-79
2021/08/04 01:09:49;;;;;;;7.25;5.60;;;;;;;17.57;70.96;96995.97;4967993;28;20039;-78
2021/08/04 01:12:27;;;;;;;7.18;5.93;;;;;;;17.66;70.26;96994.22;4968510;28;20039;-79
2021/08/04 01:14:57;;;;;;;7.45;5.82;;;;;;;17.67;70.43;96997.63;4952741;28;20031;-79
2021/08/04 01:17:23;;;;;;;5.53;4.97;;;;;;;17.79;70.19;96992.66;4936725;28;20038;-79
2021/08/04 01:20:07;;;;;;;5.60;5.10;;;;;;;17.51;71.09;96997.16;4948389;29;20039;-79
2021/08/04 01:22:54;;;;;;;5.72;5.13;;;;;;;17.73;70.18;96997.22;4920118;28;20042;-79
2021/08/04 01:25:21;;;;;;;9.23;5.65;;;;;;;17.72;70.62;96985.16;4936765;28;20043;-79
2021/08/04 01:27:54;;;;;;;7.13;6.40;;;;;;;17.65;70.31;96995.31;4952979;28;20366;-79
2021/08/04 01:30:20;;;;;;;7.35;6.47;;;;;;;17.73;70.09;97001.72;4952487;28;20394;-79
2021/08/04 01:32:46;;;;;;;8.57;6.05;;;;;;;17.72;70.03;97003.56;4968379;28;20066;-79
2021/08/04 01:35:12;;;;;;;8.35;5.85;;;;;;;17.77;70.13;97007.97;4968445;28;20058;-79
2021/08/04 01:37:38;;;;;;;8.57;6.10;;;;;;;17.73;69.75;97002.47;4946052;28;20494;-79
2021/08/04 01:40:06;;;;;;;8.52;6.05;;;;;;;17.73;70.18;97014.88;4939335;28;20031;-79
2021/08/04 01:42:34;;;;;;;7.38;5.68;;;;;;;17.78;69.68;97010.28;4951981;28;20449;-79
2021/08/04 01:45:00;;;;;;;8.95;6.43;;;;;;;17.76;69.79;97007.16;4946105;28;20046;-79
2021/08/04 01:47:29;;;;;;;8.25;5.88;;;;;;;17.59;69.95;97013.03;4935091;28;20047;-79
2021/08/04 01:49:54;;;;;;;6.88;6.13;;;;;;;17.57;70.56;97009.91;4939255;28;20030;-79
2021/08/04 01:52:22;;;;;;;7.35;5.53;;;;;;;17.54;71.10;97007.09;4935624;28;20030;-79
2021/08/04 01:54:48;;;;;;;6.95;6.00;;;;;;;17.51;71.10;97008.47;4939661;28;20035;-79
2021/08/04 01:57:13;;;;;;;7.70;6.75;;;;;;;17.50;70.99;96998.25;4935862;28;20034;-79
2021/08/04 01:59:39;;;;;;;5.90;5.30;;;;;;;17.52;70.22;97002.13;4968560;28;20070;-79
2021/08/04 02:02:20;;;;;;;7.88;6.10;;;;;;;17.35;70.93;97002.69;4945509;28;20046;-79
2021/08/04 02:04:45;;;;;;;8.43;6.50;;;;;;;17.52;71.05;97007.38;4950995;28;20035;-79
2021/08/04 02:07:18;;;;;;;8.40;6.57;;;;;;;17.34;71.23;96997.72;4972239;28;20035;-79
2021/08/04 02:09:54;;;;;;;7.22;6.07;;;;;;;17.27;71.18;97000.75;4968608;28;20042;-79
2021/08/04 02:12:21;;;;;;;7.93;6.03;;;;;;;17.35;70.73;96997.44;4945448;29;20035;-79
2021/08/04 02:14:55;;;;;;;8.73;6.80;;;;;;;17.30;70.99;97002.03;4955279;28;20046;-79
2021/08/04 02:17:41;;;;;;;7.30;6.22;;;;;;;17.25;71.38;96997.63;4971767;28;20219;-79
2021/08/04 02:20:12;;;;;;;;;;;;;;;17.13;71.91;96997.34;4955797;28;20130;-79
2021/08/04 02:22:47;;;;;;;10.65;6.43;;;;;;;17.47;70.81;97001.44;4953359;28;20009;-79
2021/08/04 02:25:16;;;;;;;7.90;6.53;;;;;;;17.37;70.70;96991.88;4955960;28;20398;-79
2021/08/04 02:27:44;;;;;;;7.68;6.38;;;;;;;17.32;71.09;96990.13;4955522;28;20094;-79
2021/08/04 02:30:10;;;;;;;10.77;7.70;;;;;;;17.31;70.85;96995.72;4952864;28;20046;-78
2021/08/04 02:32:36;;;;;;;9.00;7.35;;;;;;;17.40;70.68;96992.06;4947074;28;20035;-79
2021/08/04 02:35:03;;;;;;;8.57;6.72;;;;;;;17.29;71.33;96993.38;4939303;28;20053;-79
2021/08/04 02:37:32;;;;;;;8.20;6.43;;;;;;;17.30;70.72;96981.75;4949754;28;20306;-79
2021/08/04 02:39:57;;;;;;;9.15;7.55;;;;;;;17.36;71.17;96988.47;4955646;28;20035;-80
2021/08/04 02:42:23;;;;;;;10.00;7.88;;;;;;;17.38;70.89;96991.59;4938775;28;20035;-79
2021/08/04 02:44:48;;;;;;;9.07;7.43;;;;;;;17.39;70.83;96990.53;4937373;28;20127;-79
2021/08/04 02:47:14;;;;;;;10.45;7.97;;;;;;;17.43;70.92;96985.47;4949312;28;20111;-79
2021/08/04 02:49:39;;;;;;;12.15;8.30;;;;;;;17.40;71.19;96984.19;4948922;28;20480;-80
2021/08/04 02:52:05;;;;;;;10.80;8.27;;;;;;;17.46;70.84;96989.34;4938995;28;20470;-79
2021/08/04 02:54:31;;;;;;;12.07;8.60;;;;;;;17.39;70.87;96985.28;4964624;28;20480;-79
2021/08/04 02:56:56;;;;;;;14.18;9.98;;;;;;;17.37;71.12;96979.50;4971519;28;20082;-79
2021/08/04 02:59:21;;;;;;;11.50;9.50;;;;;;;17.46;70.03;96981.44;4954979;28;20477;-79
2021/08/04 03:01:47;;;;;;;11.95;9.80;;;;;;;17.31;70.73;96983.31;4955299;28;20066;-79
2021/08/04 03:04:12;;;;;;;15.02;10.85;;;;;;;17.35;70.91;96992.19;4919754;29;20039;-79
2021/08/04 03:06:38;;;;;;;11.73;10.45;;;;;;;17.38;70.95;96981.06;4938116;28;20035;-79
2021/08/04 03:09:03;;;;;;;13.32;10.35;;;;;;;17.38;70.96;96981.06;4937622;29;20461;-79
2021/08/04 03:11:29;;;;;;;14.88;10.65;;;;;;;17.33;71.43;96983.81;4926009;29;20069;-79
2021/08/04 03:13:54;;;;;;;12.68;10.48;;;;;;;17.33;71.36;96975.91;4919548;29;20027;-79
2021/08/04 03:16:20;;;;;;;14.02;11.23;;;;;;;17.33;71.28;96981.16;4961371;28;20508;-79
2021/08/04 03:18:45;;;;;;;13.38;10.30;;;;;;;17.37;71.32;96981.34;4971931;28;20031;-79
2021/08/04 03:21:10;;;;;;;16.00;11.02;;;;;;;17.38;70.96;96980.31;4922313;28;20345;-79
2021/08/04 03:23:36;;;;;;;13.07;10.40;;;;;;;17.45;70.87;96987.81;4954334;28;20428;-79
2021/08/04 03:26:03;;;;;;;12.25;9.88;;;;;;;17.39;70.87;96982.63;4953315;28;20035;-79
2021/08/04 03:28:29;;;;;;;12.38;9.70;;;;;;;17.44;70.98;96983.59;4939247;28;20473;-79
2021/08/04 03:30:55;;;;;;;13.05;10.43;;;;;;;17.35;70.91;96975.63;4938440;28;20038;-79
2021/08/04 03:33:21;;;;;;;12.00;9.35;;;;;;;17.40;70.45;96978.91;4972843;28;20096;-79
2021/08/04 03:35:46;;;;;;;12.43;8.93;;;;;;;17.40;70.60;96981.56;4952272;28;20031;-79
2021/08/04 03:38:11;;;;;;;11.50;9.07;;;;;;;17.34;70.44;96976.69;4936002;28;20478;-80
2021/08/04 03:40:37;;;;;;;11.88;9.73;;;;;;;17.35;70.54;96981.66;4951115;28;20082;-79
2021/08/04 03:43:02;;;;;;;12.40;9.07;;;;;;;17.33;70.86;96980.41;4937855;28;20113;-79
2021/08/04 03:45:28;;;;;;;12.18;9.90;;;;;;;17.28;70.99;96981.25;4919350;29;20414;-79
2021/08/04 03:47:53;;;;;;;12.10;9.13;;;;;;;17.34;70.72;96990.63;4950860;29;20035;-79
2021/08/04 03:50:19;;;;;;;13.38;10.00;;;;;;;17.35;70.87;96996.66;4951126;28;20035;-79
2021/08/04 03:52:44;;;;;;;12.45;9.85;;;;;;;17.28;71.38;96986.53;4931879;29;20129;-79
2021/08/04 03:55:12;;;;;;;13.10;9.13;;;;;;;17.25;71.23;96988.97;4919169;29;20031;-79
2021/08/04 03:57:37;;;;;;;12.52;9.65;;;;;;;17.28;70.97;96989.16;4952994;28;20034;-79
2021/08/04 04:00:04;;;;;;;12.18;9.25;;;;;;;17.26;71.01;96982.66;4939653;28;20397;-79
2021/08/04 04:02:32;;;;;;;12.85;9.32;;;;;;;17.24;70.99;96988.19;4968896;28;20529;-79
2021/08/04 04:04:57;;;;;;;13.25;10.20;;;;;;;17.30;70.58;96983.59;4952191;28;20446;-79
2021/08/04 04:07:23;;;;;;;14.38;10.00;;;;;;;17.25;70.99;96996.84;4934584;29;20118;-79
2021/08/04 04:09:48;;;;;;;10.55;9.30;;;;;;;17.25;70.93;96995.00;4937948;28;20307;-79
2021/08/04 04:12:14;;;;;;;11.57;9.13;;;;;;;17.26;70.91;96996.56;4969517;28;20470;-79
2021/08/04 04:14:39;;;;;;;12.00;9.00;;;;;;;17.27;71.19;97005.25;4934844;28;20522;-79
2021/08/04 04:17:04;;;;;;;12.18;9.55;;;;;;;17.19;71.25;96993.56;4937831;28;20035;-79
2021/08/04 04:19:30;;;;;;;11.00;8.63;;;;;;;17.22;71.26;96998.22;4969060;28;20042;-79
2021/08/04 04:21:55;;;;;;;13.43;9.25;;;;;;;17.17;70.90;96995.66;4969553;28;20035;-79
2021/08/04 04:24:21;;;;;;;9.93;8.60;;;;;;;17.21;71.02;96999.28;4953567;28;20489;-79
2021/08/04 04:26:46;;;;;;;10.23;8.57;;;;;;;17.20;71.16;96998.53;4947885;28;20045;-79
2021/08/04 04:29:11;;;;;;;10.73;8.63;;;;;;;17.23;71.19;97002.41;4937317;28;20054;-79
2021/08/04 04:31:37;;;;;;;9.85;8.15;;;;;;;17.24;70.70;97001.34;4952772;28;20390;-79
2021/08/04 04:34:02;;;;;;;10.55;8.63;;;;;;;17.27;70.88;97006.00;4937434;28;20057;-79
2021/08/04 04:36:28;;;;;;;10.93;8.70;;;;;;;17.22;70.96;96998.22;4936910;28;20073;-79
2021/08/04 04:38:54;;;;;;;10.55;8.55;;;;;;;17.21;70.79;96999.28;4970687;28;20039;-79
2021/08/04 04:41:19;;;;;;;9.63;7.68;;;;;;;17.23;70.87;97007.66;4924956;29;20023;-79
2021/08/04 04:43:45;;;;;;;9.55;8.20;;;;;;;17.26;70.79;97003.69;4952379;28;20113;-79
2021/08/04 04:46:10;;;;;;;11.55;8.48;;;;;;;17.23;71.12;97005.03;4949661;29;20039;-79
2021/08/04 04:48:35;;;;;;;14.02;8.45;;;;;;;17.24;71.13;97001.34;4951636;28;20042;-79
2021/08/04 04:51:01;;;;;;;14.02;9.88;;;;;;;17.25;71.46;97008.16;4920403;28;20027;-79
2021/08/04 04:53:27;;;;;;;11.10;8.50;;;;;;;17.28;71.24;97006.81;4951153;28;20031;-79
2021/08/04 04:55:53;;;;;;;11.27;9.38;;;;;;;17.31;70.74;97011.50;4946428;28;20102;-79
2021/08/04 04:58:18;;;;;;;12.32;8.73;;;;;;;17.37;70.16;97021.59;4936824;28;20074;-78
2021/08/04 05:00:44;;;;;;;13.90;9.45;;;;;;;17.38;70.89;97015.28;4967062;28;20051;-79
2021/08/04 05:03:09;;;;;;;11.40;9.07;;;;;;;17.40;70.35;97007.09;4973167;28;20062;-78
2021/08/04 05:05:34;;;;;;;9.68;7.47;;;;;;;17.39;70.59;97008.97;4937121;28;20118;-78
2021/08/04 05:08:00;;;;;;;11.18;8.77;;;;;;;17.39;70.80;97008.97;4962602;28;20063;-78
2021/08/04 05:10:26;;;;;;;11.00;8.63;;;;;;;17.45;71.22;97003.59;4953703;28;20027;-79
2021/08/04 05:12:51;;;;;;;10.23;7.80;;;;;;;17.45;70.81;97007.00;4952340;28;20111;-79
2021/08/04 05:15:16;;;;;;;10.77;8.43;;;;;;;17.50;70.17;97006.13;4930970;28;20062;-79
2021/08/04 05:17:42;;;;;;;8.88;7.20;;;;;;;17.54;70.24;97009.72;4951953;28;20031;-78
2021/08/04 05:20:08;;;;;;;12.00;8.23;;;;;;;17.49;70.30;97013.22;4935643;28;20035;-78
2021/08/04 05:22:33;;;;;;;10.35;8.27;;;;;;;17.51;70.22;97010.31;4952827;28;20405;-79
2021/08/04 05:24:59;;;;;;;9.90;8.23;;;;;;;17.51;70.76;97007.69;4937401;28;20043;-79
2021/08/04 05:27:24;;;;;;;9.85;8.18;;;;;;;17.53;70.91;97008.16;4935348;28;20093;-79
2021/08/04 05:29:49;;;;;;;9.10;8.15;;;;;;;17.58;70.20;97015.94;4935519;28;20489;-79
2021/08/04 05:32:15;;;;;;;8.38;7.47;;;;;;;17.62;70.46;97016.94;4939607;29;20439;-79
2021/08/04 05:34:40;;;;;;;8.48;6.93;;;;;;;17.65;69.91;97021.63;4952263;28;20035;-79
2021/08/04 05:37:06;;;;;;;8.15;6.88;;;;;;;17.60;70.03;97016.47;4929430;28;20399;-79
2021/08/04 05:39:31;;;;;;;9.43;6.97;;;;;;;17.65;70.11;97015.56;4932588;28;20519;-79
2021/08/04 05:41:57;;;;;;;9.88;7.72;;;;;;;17.62;70.62;97016.94;4955205;28;20034;-79
2021/08/04 05:44:22;;;;;;;9.48;7.78;;;;;;;17.68;70.08;97017.63;4953132;29;20149;-79
2021/08/04 05:46:48;;;;;;;11.40;8.07;;;;;;;17.67;70.35;97014.22;4947953;28;20035;-79
2021/08/04 05:49:13;;;;;;;9.20;7.05;;;;;;;17.69;70.17;97014.69;4940486;28;20035;-79
2021/08/04 05:51:39;;;;;;;12.23;8.60;;;;;;;17.66;69.92;97012.63;4971618;28;20093;-79
2021/08/04 05:54:04;;;;;;;7.70;6.65;;;;;;;17.68;70.08;97018.38;4940745;28;20038;-79
2021/08/04 05:56:30;;;;;;;9.93;7.28;;;;;;;17.69;70.05;97017.31;4955990;28;20194;-79
2021/08/04 05:58:55;;;;;;;11.55;8.10;;;;;;;17.68;70.34;97018.38;4939873;28;20035;-79
2021/08/04 06:01:20;;;;;;;8.13;6.57;;;;;;;17.76;69.74;97036.13;4952227;28;20027;-79
2021/08/04 06:03:46;;;;;;;8.57;7.00;;;;;;;17.78;69.96;97030.59;4944877;28;20042;-79
2021/08/04 06:06:11;;;;;;;9.75;7.10;;;;;;;17.74;69.73;97029.63;4950157;28;20043;-79
2021/08/04 06:08:37;;;;;;;9.50;7.68;;;;;;;17.76;69.78;97027.47;4955269;28;20478;-79
2021/08/04 06:11:02;;;;;;;8.32;7.32;;;;;;;17.78;70.09;97030.59;4956059;28;20034;-79
2021/08/04 06:13:27;;;;;;;9.43;7.93;;;;;;;17.83;69.68;97032.34;4971620;28;20129;-79
2021/08/04 06:15:56;;;;;;;7.70;6.55;;;;;;;17.84;69.81;97029.41;4939990;28;20413;-79
2021/08/04 06:18:21;;;;;;;9.18;7.00;;;;;;;17.94;69.54;97029.22;4966361;28;20043;-79
2021/08/04 06:20:47;;;;;;;8.82;6.68;;;;;;;17.97;69.71;97022.59;4939824;28;20031;-79
2021/08/04 06:23:13;;;;;;;7.88;7.07;;;;;;;18.05;69.13;97034.28;4945040;29;20059;-79
2021/08/04 06:25:38;;;;;;;10.15;7.63;;;;;;;18.05;69.73;97032.44;4955399;28;20392;-79
2021/08/04 06:28:04;;;;;;;8.95;7.55;;;;;;;18.10;69.47;97029.69;4971477;28;20031;-79
2021/08/04 06:30:31;;;;;;;8.35;6.93;;;;;;;18.15;68.87;97031.44;4955729;28;20045;-79
2021/08/04 06:32:57;;;;;;;8.57;7.07;;;;;;;18.31;68.29;97031.88;4973521;28;20031;-79
2021/08/04 06:35:22;;;;;;;7.05;6.30;;;;;;;18.32;68.12;97033.44;4938536;28;20053;-79
2021/08/04 06:37:48;;;;;;;8.32;7.07;;;;;;;18.22;68.24;97038.94;4955430;28;20062;-79
2021/08/04 06:40:13;;;;;;;7.03;6.20;;;;;;;18.24;68.46;97034.91;4966022;28;20034;-79
2021/08/04 06:42:39;;;;;;;8.57;6.30;;;;;;;18.24;68.53;97039.41;4954742;28;20026;-79
2021/08/04 06:45:05;;;;;;;7.22;6.50;;;;;;;18.27;68.11;97036.19;4955301;28;20154;-79
2021/08/04 06:47:31;;;;;;;9.15;6.53;;;;;;;18.27;68.83;97042.22;4970990;28;20118;-79
2021/08/04 06:49:56;;;;;;;7.63;6.22;;;;;;;18.28;67.32;97041.16;4972555;28;20062;-79
2021/08/04 06:52:22;;;;;;;7.90;5.75;;;;;;;18.27;67.82;97041.47;4951402;28;20038;-79
2021/08/04 06:54:47;;;;;;;7.13;6.00;;;;;;;18.27;67.57;97038.81;4930839;28;20161;-79
2021/08/04 06:57:12;;;;;;;9.38;6.93;;;;;;;18.16;68.39;97038.25;4938243;28;20549;-79
2021/08/04 06:59:38;;;;;;;8.30;6.25;;;;;;;18.19;67.82;97040.28;4933827;28;20035;-79
2021/08/04 07:02:03;;;;;;;6.93;5.97;;;;;;;18.18;67.99;97045.84;4937839;28;20133;-79
2021/08/04 07:04:29;;;;;;;9.57;6.43;;;;;;;18.15;68.43;97042.75;4950798;28;20041;-79
2021/08/04 07:06:57;;;;;;;6.30;5.70;;;;;;;18.13;67.83;97044.91;4947400;28;20046;-79
2021/08/04 07:09:22;;;;;;;6.80;6.10;;;;;;;18.21;67.81;97042.63;4937347;28;20037;-79
2021/08/04 07:11:48;;;;;;;8.48;6.72;;;;;;;18.19;67.60;97042.16;4938395;28;20389;-79
2021/08/04 07:14:19;;;;;;;6.47;5.80;;;;;;;18.25;67.58;97047.03;4937627;28;20038;-79
2021/08/04 07:16:48;;;;;;;7.40;6.20;;;;;;;18.28;68.19;97050.91;4953686;28;20037;-79
2021/08/04 07:19:14;;;;;;;6.97;5.90;;;;;;;18.43;67.65;97050.56;4938016;28;20035;-79
2021/08/04 07:21:39;;;;;;;5.65;5.15;;;;;;;18.54;67.08;97051.13;4953481;28;20047;-79
2021/08/04 07:24:07;;;;;;;5.93;5.32;;;;;;;18.57;67.46;97055.03;4952401;28;20030;-79
2021/08/04 07:26:33;;;;;;;6.25;5.57;;;;;;;18.64;66.52;97061.44;4937894;28;20510;-79
2021/08/04 07:28:59;;;;;;;5.35;4.85;;;;;;;18.61;66.08;97063.88;4950278;28;20493;-79
2021/08/04 07:31:24;;;;;;;6.20;5.60;;;;;;;18.50;66.57;97061.47;4922799;29;20035;-79
2021/08/04 07:33:50;;;;;;;6.05;5.45;;;;;;;18.51;67.03;97051.72;4967002;28;20042;-79
2021/08/04 07:36:15;;;;;;;6.28;5.68;;;;;;;18.49;67.31;97059.94;4937489;28;20037;-79
2021/08/04 07:38:41;;;;;;;6.65;5.93;;;;;;;18.45;67.08;97053.69;4969807;28;20533;-79
2021/08/04 07:41:06;;;;;;;6.57;5.22;;;;;;;18.48;66.59;97055.72;4965898;28;20038;-79
2021/08/04 07:43:32;;;;;;;5.97;4.90;;;;;;;18.48;66.42;97057.59;4918655;28;20502;-78
2021/08/04 07:45:57;;;;;;;6.20;4.82;;;;;;;18.61;65.85;97063.88;4969127;28;20038;-78
2021/08/04 07:48:22;;;;;;;5.32;4.40;;;;;;;18.63;65.79;97061.75;4972425;28;20022;-79
2021/08/04 07:50:48;;;;;;;5.65;4.63;;;;;;;18.76;65.26;97066.16;4923649;28;20042;-79
2021/08/04 07:53:13;;;;;;;4.75;4.32;;;;;;;18.84;64.82;97064.72;4945271;28;20027;-79
2021/08/04 07:55:39;;;;;;;4.82;4.40;;;;;;;18.91;64.28;97062.44;4961601;28;20130;-79
2021/08/04 07:58:04;;;;;;;5.32;4.70;;;;;;;18.98;65.25;97067.28;4943506;28;20015;-78
2021/08/04 08:00:30;;;;;;;5.10;4.60;;;;;;;19.16;63.54;97061.03;4933817;28;20026;-79
2021/08/04 08:02:56;;;;;;;4.32;3.92;;;;;;;19.37;63.42;97060.50;4913080;28;20500;-79
2021/08/04 08:05:22;;;;;;;4.18;3.78;;;;;;;19.49;62.51;97059.94;4921271;28;20118;-79
2021/08/04 08:07:48;;;;;;;4.22;3.70;;;;;;;19.62;62.21;97062.47;4930896;28;20110;-79
2021/08/04 08:10:18;;;;;;;4.75;4.35;;;;;;;19.62;61.07;97053.75;4930473;28;20074;-79
2021/08/04 08:12:44;;;;;;;4.20;3.80;;;;;;;19.65;60.58;97051.31;4925246;28;20031;-78
2021/08/04 08:15:09;;;;;;;4.55;4.10;;;;;;;19.59;61.14;97047.22;4944576;28;20042;-79
2021/08/04 08:17:35;;;;;;;4.68;3.75;;;;;;;19.62;61.04;97051.91;4942886;28;20061;-79
2021/08/04 08:20:00;;;;;;;5.10;3.88;;;;;;;19.67;61.14;97045.69;4949189;28;20473;-78
2021/08/04 08:22:26;;;;;;;5.88;5.18;;;;;;;19.56;59.82;97053.13;4944493;28;20027;-79
2021/08/04 08:24:51;;;;;;;4.15;3.25;;;;;;;19.50;60.58;97043.00;4945360;28;20035;-79
2021/08/04 08:27:17;;;;;;;4.70;3.80;;;;;;;19.44;61.41;97034.44;4942731;28;20037;-79
2021/08/04 08:29:42;;;;;;;5.43;4.28;;;;;;;19.35;62.64;97042.31;4961610;28;20038;-79
2021/08/04 08:32:08;;;;;;;5.13;4.15;;;;;;;19.45;62.25;97036.00;4946764;28;20045;-79
2021/08/04 08:34:33;;;;;;;4.50;3.75;;;;;;;19.65;61.48;97030.16;4945562;28;20061;-79
2021/08/04 08:36:59;;;;;;;4.13;3.72;;;;;;;19.78;60.35;97027.75;4949232;28;20381;-78
2021/08/04 08:39:24;;;;;;;4.53;3.58;;;;;;;19.86;60.55;97032.28;4946338;28;20525;-78
2021/08/04 08:41:50;;;;;;;4.78;4.38;;;;;;;19.97;60.74;97016.88;4945134;28;20034;-78
2021/08/04 08:44:15;;;;;;;4.15;3.67;;;;;;;20.37;59.84;97027.31;4944104;28;20433;-78
2021/08/04 08:46:40;;;;;;;4.07;3.58;;;;;;;20.62;57.85;97025.00;4940459;28;20329;-79
2021/08/04 08:49:07;;;;;;;3.97;3.58;;;;;;;20.68;58.77;97032.47;4945243;28;20027;-78
2021/08/04 08:51:32;;;;;;;3.60;3.17;;;;;;;20.59;59.30;97026.38;4947416;28;20089;-78
2021/08/04 08:53:58;;;;;;;4.53;4.13;;;;;;;20.42;59.93;97037.75;4929117;28;20502;-79
2021/08/04 08:56:23;;;;;;;3.47;3.15;;;;;;;20.35;60.27;97040.84;4945303;28;20111;-78
2021/08/04 08:58:52;;;;;;;3.95;3.63;;;;;;;20.27;60.70;97030.28;4959216;28;20101;-78
2021/08/04 09:01:17;;;;;;;4.03;3.17;;;;;;;20.21;61.48;97034.94;4927564;28;20033;-79
2021/08/04 09:03:43;;;;;;;5.30;3.63;;;;;;;20.14;59.76;97037.28;4943887;28;20169;-78
2021/08/04 09:06:11;;;;;;;4.65;3.97;;;;;;;20.58;60.39;97024.84;4936841;28;20031;-78
2021/08/04 09:08:37;;;;;;;4.85;3.42;;;;;;;21.12;59.87;97025.19;4949133;28;20037;-78
2021/08/04 09:11:29;;;;;;;4.55;3.58;;;;;;;21.28;58.27;97032.63;4939399;28;20090;-78
2021/08/04 09:14:04;;;;;;;3.53;3.17;;;;;;;21.21;56.14;97027.06;4920171;28;20101;-78
2021/08/04 09:16:33;;;;;;;3.40;2.92;;;;;;;21.28;56.22;97030.78;4947804;29;20039;-78
2021/08/04 09:18:59;;;;;;;3.53;2.88;;;;;;;21.27;56.88;97028.44;4952460;28;20102;-79
2021/08/04 09:21:24;;;;;;;3.22;2.85;;;;;;;21.23;57.12;97030.16;4922687;28;20477;-78
2021/08/04 09:23:54;;;;;;;3.60;3.22;;;;;;;21.11;57.27;97033.47;4961728;28;20039;-78
2021/08/04 09:26:21;;;;;;;3.58;3.28;;;;;;;21.06;57.44;97025.69;4967418;28;20438;-79
2021/08/04 09:29:01;;;;;;;4.18;3.17;;;;;;;20.99;59.25;97026.19;4952092;28;20038;-79
2021/08/04 09:31:38;;;;;;;3.22;2.90;;;;;;;21.08;56.95;97024.28;4936613;28;20037;-79
2021/08/04 09:34:03;;;;;;;4.07;3.00;;;;;;;21.25;56.03;97026.09;4949795;28;20035;-78
2021/08/04 09:36:29;;;;;;;3.45;3.03;;;;;;;21.10;57.63;97021.34;4958178;28;20034;-79
2021/08/04 09:39:03;;;;;;;2.80;2.58;;;;;;;21.01;58.31;97016.06;4944925;28;20058;-78
2021/08/04 09:41:29;;;;;;;3.17;2.60;;;;;;;21.31;55.81;97013.47;4950249;28;20035;-78
2021/08/04 09:44:07;;;;;;;3.28;2.97;;;;;;;21.08;56.88;97016.34;4933230;28;20759;-79
2021/08/04 09:46:33;;;;;;;3.10;2.42;;;;;;;21.41;55.71;97005.16;4951560;28;20034;-78
2021/08/04 09:49:17;;;;;;;3.10;2.80;;;;;;;21.37;57.61;97003.47;4954389;28;20030;-79
2021/08/04 09:51:44;;;;;;;3.40;3.10;;;;;;;21.89;56.97;97008.50;4931013;29;20031;-79
2021/08/04 09:54:11;;;;;;;3.13;2.88;;;;;;;21.95;54.34;97001.94;4933703;28;20121;-79
2021/08/04 09:56:52;;;;;;;3.85;2.72;;;;;;;21.93;55.60;97001.47;4960371;28;20069;-78
2021/08/04 09:59:18;;;;;;;2.97;2.78;;;;;;;22.31;54.40;96997.16;4962715;28;20433;-79
2021/08/04 10:01:44;;;;;;;2.70;2.50;;;;;;;22.57;53.05;96997.72;4935912;28;20062;-79
2021/08/04 10:04:11;;;;;;;2.70;2.50;;;;;;;22.56;53.01;96996.16;4963878;28;20486;-79
2021/08/04 10:06:41;;;;;;;3.53;3.05;;;;;;;22.99;53.75;97000.22;4930698;28;20674;-79
2021/08/04 10:09:09;;;;;;;4.38;2.50;;;;;;;23.42;52.77;96992.09;4951805;28;20031;-79
2021/08/04 10:11:39;;;;;;;2.63;2.42;;;;;;;24.15;50.55;96993.91;4947469;28;20457;-79
2021/08/04 10:14:05;;;;;;;2.30;2.13;;;;;;;24.51;49.03;96986.13;4934810;28;20031;-79
2021/08/04 10:16:33;;;;;;;2.90;2.70;;;;;;;24.28;47.83;96991.97;4936057;28;20088;-78
2021/08/04 10:19:00;;;;;;;2.85;2.33;;;;;;;23.94;47.20;96996.75;4961443;28;20042;-78
2021/08/04 10:21:26;;;;;;;2.40;2.20;;;;;;;23.74;48.27;96993.84;4960059;28;20030;-78
2021/08/04 10:23:52;;;;;;;2.70;2.50;;;;;;;23.89;47.09;96987.09;4933386;28;20042;-78
2021/08/04 10:26:20;;;;;;;2.58;2.38;;;;;;;23.69;47.40;96975.47;4959778;28;20394;-78
2021/08/04 10:28:46;;;;;;;2.80;2.35;;;;;;;23.48;48.32;96980.16;4948864;28;20031;-78
2021/08/04 10:31:16;;;;;;;2.92;2.72;;;;;;;23.35;50.25;96977.50;4923036;28;20417;-78
2021/08/04 10:33:42;;;;;;;2.72;2.50;;;;;;;23.16;51.24;96975.38;4919292;29;20098;-78
2021/08/04 10:36:14;;;;;;;2.72;2.53;;;;;;;23.07;51.48;96973.97;4964677;28;20390;-78
2021/08/04 10:38:43;;;;;;;2.83;2.63;;;;;;;22.90;51.70;96970.34;4930882;29;20117;-78
2021/08/04 10:41:13;;;;;;;2.40;2.20;;;;;;;23.05;51.22;96962.84;4936836;28;20031;-79
2021/08/04 10:43:50;;;;;;;2.88;2.38;;;;;;;23.16;48.84;96964.00;4957421;28;20055;-78
2021/08/04 10:46:28;;;;;;;2.92;2.70;;;;;;;23.18;48.81;96970.53;4958409;28;20039;-79
2021/08/04 10:48:58;;;;;;;2.95;2.20;;;;;;;23.32;47.46;96970.22;4969455;28;20496;-78
2021/08/04 10:51:24;;;;;;;3.80;2.63;;;;;;;23.32;48.19;96970.22;4953704;28;20038;-79
2021/08/04 10:54:02;;;;;;;3.03;2.20;;;;;;;22.99;48.98;96968.38;4941045;28;20405;-78
2021/08/04 10:56:37;;;;;;;3.13;2.83;;;;;;;23.16;48.81;96962.09;4955118;28;20097;-79
2021/08/04 10:59:08;;;;;;;2.83;2.63;;;;;;;23.65;49.86;96958.66;4936609;29;20037;-78
2021/08/04 11:01:53;;;;;;;2.40;2.20;;;;;;;23.81;47.67;96953.44;4944750;28;20034;-78
2021/08/04 11:04:27;;;;;;;2.42;2.22;;;;;;;23.91;47.58;96941.56;4950076;28;20071;-78
2021/08/04 11:07:08;;;;;;;2.72;2.53;;;;;;;23.90;47.80;96945.31;4944388;28;20383;-79
2021/08/04 11:09:37;;;;;;;3.08;2.65;;;;;;;24.04;46.72;96936.97;4950770;29;20482;-78
2021/08/04 11:12:04;;;;;;;3.28;3.08;;;;;;;23.73;47.40;96941.00;4966435;28;20039;-78
2021/08/04 11:14:47;;;;;;;2.72;2.53;;;;;;;23.60;48.87;96945.59;4947764;28;20623;-78
2021/08/04 11:17:17;;;;;;;4.45;2.92;;;;;;;23.99;48.41;96937.22;4950350;29;20073;-78
2021/08/04 11:20:09;;;;;;;3.30;2.95;;;;;;;23.56;51.57;96942.03;4943838;28;20576;-79
2021/08/04 11:22:34;;;;;;;2.92;2.70;;;;;;;24.09;48.46;96940.19;4962284;28;20038;-78
2021/08/04 11:25:35;;;;;;;2.45;2.25;;;;;;;24.02;48.10;96947.94;4948214;28;20490;-79
2021/08/04 11:28:05;;;;;;;2.50;2.30;;;;;;;24.08;47.98;96948.50;4926488;28;20491;-79
2021/08/04 11:30:39;;;;;;;2.35;2.15;;;;;;;24.05;49.47;96936.63;4954320;28;20035;-79
2021/08/04 11:33:24;;;;;;;2.25;2.13;;;;;;;24.09;48.80;96936.72;4952013;28;20026;-78
2021/08/04 11:36:15;;;;;;;2.47;2.28;;;;;;;24.33;47.11;96935.84;4965701;28;20084;-79